Time;durP1;ratioP1;P1;durP2;ratioP2;P2;SDS_P1;SDS_P2;PMS_P1;PMS_P2;Temp;Humidity;BMP_temperature;BMP_pressure;BME280_temperature;BME280_humidity;BME280_pressure;Samples;Min_cycle;Max_cycle;Signal;HPM_P1;HPM_P2
2024/01/27 00:00:37;;;;;;;15.23;4.70;;;6.80;90.40;;;;;;10406489;28;20203;-60
2024/01/27 00:05:41;;;;;;;15.63;3.50;;;6.80;90.40;;;;;;10407564;28;20230;-60
2024/01/27 00:10:45;;;;;;;17.90;5.57;;;6.80;90.50;;;;;;10420219;28;20239;-60
2024/01/27 00:15:51;;;;;;;40.20;13.57;;;6.80;90.50;;;;;;10431887;28;20273;-61
2024/01/27 00:20:55;;;;;;;45.50;16.10;;;6.70;90.40;;;;;;10448443;28;20813;-58
2024/01/27 00:25:58;;;;;;;47.80;17.20;;;6.70;90.40;;;;;;10418847;28;20250;-61
2024/01/27 00:31:03;;;;;;;16.50;5.50;;;6.70;90.50;;;;;;10422743;28;20206;-60
2024/01/27 00:36:07;;;;;;;16.73;6.23;;;6.70;90.50;;;;;;10412980;28;20246;-61
2024/01/27 00:41:17;;;;;;;14.00;4.23;;;6.70;90.50;;;;;;10424316;28;20890;-64
2024/01/27 00:46:22;;;;;;;15.37;4.00;;;6.70;90.60;;;;;;10422385;28;20754;-63
2024/01/27 00:51:25;;;;;;;14.30;3.90;;;6.60;90.50;;;;;;10420012;28;20203;-65
2024/01/27 00:56:29;;;;;;;16.80;7.13;;;6.60;90.90;;;;;;10413078;28;20224;-61
2024/01/27 01:01:34;;;;;;;15.67;6.03;;;6.60;90.50;;;;;;10437323;28;20200;-62
2024/01/27 01:06:40;;;;;;;14.20;5.03;;;6.60;90.70;;;;;;10418330;28;20204;-61
2024/01/27 01:11:43;;;;;;;12.93;5.23;;;6.50;90.50;;;;;;10425747;28;20203;-63
2024/01/27 01:16:48;;;;;;;14.73;4.17;;;6.50;90.50;;;;;;10407793;28;20199;-61
2024/01/27 01:21:52;;;;;;;14.63;4.10;;;6.50;90.50;;;;;;10416513;28;20236;-66
2024/01/27 01:26:55;;;;;;;12.90;3.90;;;6.40;90.40;;;;;;10423240;28;20226;-63
2024/01/27 01:32:02;;;;;;;13.83;4.60;;;6.40;90.40;;;;;;10432985;28;20292;-65
2024/01/27 01:37:06;;;;;;;12.30;4.10;;;6.40;90.40;;;;;;10426801;28;20214;-61
2024/01/27 01:42:09;;;;;;;13.47;3.97;;;6.40;90.40;;;;;;10410522;28;20223;-63
2024/01/27 01:47:14;;;;;;;13.10;4.13;;;6.30;90.40;;;;;;10430550;28;20204;-63
2024/01/27 01:52:20;;;;;;;14.53;5.03;;;6.30;90.40;;;;;;10425874;28;20219;-62
2024/01/27 01:57:23;;;;;;;16.17;5.20;;;6.20;90.30;;;;;;10414537;28;20208;-64
2024/01/27 02:02:28;;;;;;;12.90;4.80;;;6.20;90.40;;;;;;10412516;28;20219;-67
2024/01/27 02:07:32;;;;;;;15.73;4.40;;;6.10;90.40;;;;;;10426551;28;20261;-62
2024/01/27 02:12:35;;;;;;;14.70;4.07;;;6.10;90.40;;;;;;10422446;28;20211;-64
2024/01/27 02:17:41;;;;;;;14.97;4.40;;;6.10;90.50;;;;;;10407916;28;20198;-64
2024/01/27 02:22:45;;;;;;;11.90;4.30;;;6.00;90.50;;;;;;10431048;28;20228;-62
2024/01/27 02:27:50;;;;;;;11.97;4.13;;;5.90;90.50;;;;;;10427041;28;20213;-64
2024/01/27 02:32:54;;;;;;;17.77;5.00;;;5.90;90.50;;;;;;10420261;28;20281;-70
2024/01/27 02:37:58;;;;;;;13.80;4.53;;;5.90;90.60;;;;;;10422968;28;20569;-65
2024/01/27 02:43:03;;;;;;;12.50;4.57;;;5.80;90.60;;;;;;10421481;28;20231;-66
2024/01/27 02:48:07;;;;;;;15.73;5.23;;;5.80;90.70;;;;;;10431386;28;20264;-63
2024/01/27 02:53:11;;;;;;;15.20;5.63;;;5.80;90.70;;;;;;10429850;28;20280;-64
2024/01/27 02:58:16;;;;;;;15.17;5.00;;;5.80;90.60;;;;;;10414222;28;20256;-65
2024/01/27 03:03:20;;;;;;;10.57;5.00;;;5.70;90.60;;;;;;10429839;28;20270;-64
2024/01/27 03:08:23;;;;;;;16.03;5.53;;;5.60;90.70;;;;;;10426502;28;20234;-62
2024/01/27 03:13:29;;;;;;;11.40;5.07;;;5.60;90.80;;;;;;10428902;28;20249;-62
2024/01/27 03:18:33;;;;;;;17.20;5.03;;;5.60;90.80;;;;;;10416650;28;20206;-63
2024/01/27 03:23:37;;;;;;;14.40;4.83;;;5.60;90.80;;;;;;10427273;28;20227;-64
2024/01/27 03:28:41;;;;;;;14.73;5.20;;;5.50;90.80;;;;;;10429092;28;20207;-63
2024/01/27 03:33:45;;;;;;;11.23;5.23;;;5.50;90.80;;;;;;10427602;28;20713;-64
2024/01/27 03:38:49;;;;;;;16.50;5.53;;;5.50;90.90;;;;;;10423315;28;20200;-63
2024/01/27 03:43:54;;;;;;;11.90;4.53;;;5.50;90.80;;;;;;10440645;28;20786;-65
2024/01/27 03:48:57;;;;;;;14.13;5.40;;;5.50;90.90;;;;;;10433405;28;20203;-64
2024/01/27 03:54:01;;;;;;;16.85;6.43;;;5.40;90.90;;;;;;10425566;28;20445;-64
2024/01/27 03:59:09;;;;;;;15.13;5.30;;;5.50;91.10;;;;;;10415234;28;20248;-67
2024/01/27 04:04:12;;;;;;;15.67;5.83;;;5.50;90.90;;;;;;10429957;28;20260;-64
2024/01/27 04:09:17;;;;;;;17.00;6.10;;;5.40;90.90;;;;;;10427549;28;20204;-64
2024/01/27 04:14:22;;;;;;;12.70;5.23;;;5.40;90.80;;;;;;10424056;28;20227;-65
2024/01/27 04:19:25;;;;;;;18.87;6.20;;;5.40;90.90;;;;;;10424017;28;20202;-68
2024/01/27 04:24:29;;;;;;;16.60;5.37;;;5.40;91.00;;;;;;10422071;28;20630;-63
2024/01/27 04:29:34;;;;;;;13.57;5.73;;;5.40;91.10;;;;;;10423219;28;20473;-64
2024/01/27 04:34:38;;;;;;;16.33;5.07;;;5.30;90.90;;;;;;10432653;28;20217;-64
2024/01/27 04:39:42;;;;;;;15.47;6.10;;;5.30;91.30;;;;;;10442107;28;20249;-63
2024/01/27 04:44:47;;;;;;;15.97;6.10;;;5.40;91.10;;;;;;10434016;28;20223;-65
2024/01/27 04:49:51;;;;;;;13.57;5.73;;;5.40;91.10;;;;;;10435257;28;20219;-64
2024/01/27 04:54:54;;;;;;;15.83;5.77;;;5.40;91.80;;;;;;10429695;28;20280;-64
2024/01/27 04:59:59;;;;;;;15.13;6.20;;;5.40;91.20;;;;;;10425477;28;20566;-65
2024/01/27 05:05:03;;;;;;;13.90;5.90;;;5.40;91.10;;;;;;10415484;28;20730;-64
2024/01/27 05:10:11;;;;;;;23.70;6.40;;;5.40;91.10;;;;;;10425686;28;20297;-63
2024/01/27 05:15:16;;;;;;;14.93;6.40;;;5.40;91.10;;;;;;10421837;28;20253;-65
2024/01/27 05:20:19;;;;;;;15.73;6.10;;;5.30;91.50;;;;;;10412871;28;20248;-61
2024/01/27 05:25:23;;;;;;;19.07;7.23;;;5.30;91.20;;;;;;10411811;28;20296;-63
2024/01/27 05:30:28;;;;;;;18.03;6.67;;;5.30;91.10;;;;;;10421440;28;20199;-64
2024/01/27 05:35:32;;;;;;;12.33;6.07;;;5.30;91.10;;;;;;10418214;28;20299;-64
2024/01/27 05:40:35;;;;;;;15.87;7.00;;;5.30;91.10;;;;;;10417657;28;20258;-64
2024/01/27 05:45:45;;;;;;;18.20;6.87;;;5.30;91.30;;;;;;10413696;28;20255;-64
2024/01/27 05:50:56;;;;;;;14.30;6.53;;;5.40;91.20;;;;;;10417246;28;20751;-63
2024/01/27 05:56:00;;;;;;;15.27;5.90;;;5.40;91.20;;;;;;10426629;28;20864;-66
2024/01/27 06:01:05;;;;;;;21.03;7.07;;;5.40;91.50;;;;;;10406917;28;20653;-66
2024/01/27 06:06:09;;;;;;;19.20;7.10;;;5.30;91.10;;;;;;10413388;28;20634;-69
2024/01/27 06:11:12;;;;;;;15.80;6.33;;;5.30;91.10;;;;;;10416861;28;20651;-63
2024/01/27 06:16:19;;;;;;;19.20;6.70;;;5.30;91.10;;;;;;10419716;28;20244;-67
2024/01/27 06:21:22;;;;;;;19.57;6.17;;;5.30;91.30;;;;;;10412223;28;20207;-63
2024/01/27 06:26:26;;;;;;;18.80;7.00;;;5.30;91.10;;;;;;10418757;28;20228;-66
2024/01/27 06:31:31;;;;;;;13.30;6.53;;;5.30;91.10;;;;;;10420613;28;20201;-67
2024/01/27 06:36:35;;;;;;;15.63;6.37;;;5.30;91.00;;;;;;10413791;28;20234;-64
2024/01/27 06:41:38;;;;;;;17.20;5.70;;;5.30;91.10;;;;;;10418838;28;20255;-66
2024/01/27 06:46:45;;;;;;;16.60;5.33;;;5.20;91.30;;;;;;10414675;28;20231;-65
2024/01/27 06:51:49;;;;;;;12.40;5.40;;;5.20;91.40;;;;;;10420140;28;20207;-66
2024/01/27 06:56:52;;;;;;;12.60;5.07;;;5.20;91.10;;;;;;10417719;28;20199;-66
2024/01/27 07:01:57;;;;;;;14.07;5.30;;;5.20;91.10;;;;;;10433568;28;20214;-60
2024/01/27 07:07:01;;;;;;;14.73;5.17;;;5.20;91.10;;;;;;10432820;28;20293;-64
2024/01/27 07:12:05;;;;;;;16.07;6.17;;;5.20;91.10;;;;;;10411437;28;20227;-64
2024/01/27 07:17:10;;;;;;;13.63;5.30;;;5.20;91.10;;;;;;10395829;28;20331;-65
2024/01/27 07:22:14;;;;;;;16.37;5.53;;;5.20;91.20;;;;;;10412968;28;20281;-63
2024/01/27 07:27:18;;;;;;;12.00;5.77;;;5.20;91.10;;;;;;10407895;28;20624;-63
2024/01/27 07:32:23;;;;;;;13.27;5.73;;;5.20;91.10;;;;;;10415440;28;20222;-63
2024/01/27 07:37:26;;;;;;;15.60;5.80;;;5.10;91.00;;;;;;10416669;28;20637;-62
2024/01/27 07:42:30;;;;;;;14.80;6.33;;;5.10;91.10;;;;;;10420905;28;20221;-62
2024/01/27 07:47:35;;;;;;;16.43;6.43;;;5.10;91.20;;;;;;10414611;28;20269;-63
2024/01/27 07:52:39;;;;;;;15.70;5.90;;;5.10;91.50;;;;;;10420954;28;20227;-63
2024/01/27 07:57:42;;;;;;;16.10;5.23;;;5.10;91.00;;;;;;10439778;28;20206;-63
2024/01/27 08:02:47;;;;;;;14.63;7.50;;;5.00;91.00;;;;;;10426357;28;20247;-64
2024/01/27 08:07:51;;;;;;;14.70;6.07;;;5.00;91.10;;;;;;10421601;28;20265;-61
2024/01/27 08:12:55;;;;;;;10.37;5.37;;;5.00;91.20;;;;;;10428868;28;20273;-64
2024/01/27 08:18:00;;;;;;;20.33;6.43;;;5.10;91.20;;;;;;10414791;28;20200;-63
2024/01/27 08:23:03;;;;;;;13.77;5.10;;;5.10;91.40;;;;;;10441277;28;20227;-62
2024/01/27 08:28:10;;;;;;;17.07;5.20;;;5.20;91.70;;;;;;10425680;28;20261;-63
2024/01/27 08:33:15;;;;;;;14.87;5.43;;;5.20;91.60;;;;;;10413399;28;20218;-64
2024/01/27 08:38:19;;;;;;;15.97;6.07;;;5.30;91.90;;;;;;10427170;28;20352;-63
2024/01/27 08:43:23;;;;;;;16.67;5.77;;;5.40;91.30;;;;;;10426656;28;20244;-61
2024/01/27 08:48:28;;;;;;;16.07;5.60;;;5.40;91.50;;;;;;10434558;28;20207;-63
2024/01/27 08:53:32;;;;;;;12.00;4.97;;;5.50;91.40;;;;;;10424127;28;20287;-61
2024/01/27 08:58:35;;;;;;;22.17;6.07;;;5.60;91.20;;;;;;10411528;28;20203;-62
2024/01/27 09:03:41;;;;;;;15.93;5.37;;;5.60;91.20;;;;;;10422035;28;20222;-61
2024/01/27 09:08:45;;;;;;;14.23;5.23;;;5.70;91.90;;;;;;10410782;28;20255;-63
2024/01/27 09:13:51;;;;;;;13.03;5.43;;;5.80;91.70;;;;;;10410390;28;20241;-61
2024/01/27 09:18:56;;;;;;;14.30;5.37;;;5.80;91.50;;;;;;10418455;28;20225;-63
2024/01/27 09:24:01;;;;;;;11.30;5.00;;;5.90;91.50;;;;;;10410649;28;20234;-62
2024/01/27 09:29:05;;;;;;;17.93;5.20;;;5.90;91.50;;;;;;10413003;28;20239;-63
2024/01/27 09:34:09;;;;;;;14.13;4.80;;;6.00;91.30;;;;;;10418870;28;20280;-63
2024/01/27 09:39:13;;;;;;;16.57;5.60;;;6.00;91.40;;;;;;10429720;28;20199;-65
2024/01/27 09:44:19;;;;;;;15.50;5.27;;;6.10;91.30;;;;;;10420128;28;20219;-63
2024/01/27 09:49:27;;;;;;;14.97;5.27;;;6.20;91.90;;;;;;10421466;28;20275;-62
2024/01/27 09:54:31;;;;;;;12.23;4.33;;;6.20;91.70;;;;;;10414964;28;20557;-61
2024/01/27 09:59:35;;;;;;;14.83;4.70;;;6.30;91.60;;;;;;10418522;28;20245;-64
2024/01/27 10:04:42;;;;;;;12.67;4.63;;;6.40;91.50;;;;;;10411890;28;20231;-67
2024/01/27 10:09:50;;;;;;;13.10;4.80;;;6.50;91.40;;;;;;10403539;28;20251;-61
2024/01/27 10:14:53;;;;;;;14.37;4.13;;;6.60;92.30;;;;;;10419810;28;21044;-61
2024/01/27 10:20:03;;;;;;;18.90;7.47;;;6.60;91.50;;;;;;10411541;28;20199;-61
2024/01/27 10:25:08;;;;;;;14.83;5.93;;;6.70;91.60;;;;;;10409125;28;20243;-63
2024/01/27 10:30:17;;;;;;;15.73;4.87;;;6.80;91.40;;;;;;10416023;28;20231;-62
2024/01/27 10:35:23;;;;;;;16.90;5.73;;;6.90;91.10;;;;;;10411259;28;20297;-61
2024/01/27 10:40:27;;;;;;;14.87;4.70;;;7.00;91.30;;;;;;10427363;28;20269;-63
2024/01/27 10:45:36;;;;;;;16.00;5.20;;;7.00;91.30;;;;;;10419650;28;20277;-63
2024/01/27 10:50:41;;;;;;;18.07;7.73;;;7.10;91.00;;;;;;10411113;28;20207;-62
2024/01/27 10:55:50;;;;;;;13.30;5.40;;;7.10;90.80;;;;;;10417298;28;20637;-61
2024/01/27 11:00:56;;;;;;;13.83;4.40;;;7.20;90.90;;;;;;10407094;28;20208;-62
2024/01/27 11:06:03;;;;;;;12.43;3.70;;;7.20;90.40;;;;;;10413124;28;20223;-62
2024/01/27 11:11:06;;;;;;;19.00;6.03;;;7.20;90.20;;;;;;10407606;28;20214;-61
2024/01/27 11:16:17;;;;;;;16.37;4.80;;;7.20;90.30;;;;;;10420714;28;20723;-62
2024/01/27 11:21:22;;;;;;;12.23;4.70;;;7.30;90.20;;;;;;10421741;28;20202;-63
2024/01/27 11:26:26;;;;;;;13.60;3.83;;;7.40;90.20;;;;;;10418519;28;20253;-61
2024/01/27 11:31:33;;;;;;;10.30;3.83;;;7.40;90.40;;;;;;10413354;28;20203;-63
2024/01/27 11:36:38;;;;;;;19.17;4.60;;;7.50;90.50;;;;;;10417614;28;20188;-64
2024/01/27 11:41:43;;;;;;;12.50;4.63;;;7.60;90.20;;;;;;10390936;28;20501;-65
2024/01/27 11:46:47;;;;;;;9.97;3.63;;;7.80;88.50;;;;;;10416961;28;20259;-65
2024/01/27 11:51:52;;;;;;;11.47;3.80;;;8.00;89.20;;;;;;10425273;28;20238;-65
2024/01/27 11:56:55;;;;;;;13.57;3.43;;;8.10;89.20;;;;;;10414222;28;20736;-65
2024/01/27 12:02:01;;;;;;;11.20;4.03;;;8.20;89.20;;;;;;10410742;28;20220;-65
2024/01/27 12:07:07;;;;;;;15.53;3.83;;;8.40;88.20;;;;;;10414294;28;20224;-64
2024/01/27 12:12:14;;;;;;;12.63;4.20;;;8.50;88.20;;;;;;10413527;28;20216;-63
2024/01/27 12:17:19;;;;;;;11.00;4.20;;;8.60;86.90;;;;;;10435477;28;20690;-63
2024/01/27 12:22:25;;;;;;;13.93;4.57;;;8.70;87.40;;;;;;10419928;28;20753;-64
2024/01/27 12:27:29;;;;;;;10.10;4.17;;;8.80;86.90;;;;;;10405663;28;20296;-65
2024/01/27 12:32:33;;;;;;;13.80;4.50;;;9.00;87.60;;;;;;10414168;28;20224;-65
2024/01/27 12:37:38;;;;;;;11.97;3.93;;;9.20;85.60;;;;;;10412546;28;20247;-64
2024/01/27 12:42:42;;;;;;;14.37;4.10;;;9.40;86.60;;;;;;10413182;28;20236;-68
2024/01/27 12:47:46;;;;;;;10.77;3.90;;;9.50;85.20;;;;;;10414868;28;20363;-68
2024/01/27 12:52:51;;;;;;;8.37;4.10;;;9.60;83.70;;;;;;10419209;28;20808;-69
2024/01/27 12:57:55;;;;;;;16.40;4.40;;;9.80;84.20;;;;;;10411665;28;20200;-68
2024/01/27 13:02:58;;;;;;;14.82;4.40;;;10.00;83.60;;;;;;10427563;28;20290;-67
2024/01/27 13:08:04;;;;;;;14.17;4.20;;;10.20;83.80;;;;;;10412906;28;20258;-68
2024/01/27 13:13:07;;;;;;;10.07;4.27;;;10.30;84.70;;;;;;10421362;28;20561;-67
2024/01/27 13:18:11;;;;;;;11.35;4.03;;;10.50;84.20;;;;;;10426257;28;20208;-67
2024/01/27 13:23:17;;;;;;;12.93;4.37;;;10.60;83.50;;;;;;10430979;28;20286;-67
2024/01/27 13:28:21;;;;;;;11.93;4.00;;;10.60;83.10;;;;;;10413704;28;20239;-66
2024/01/27 13:33:24;;;;;;;11.95;4.47;;;10.40;81.50;;;;;;10418770;28;20219;-66
2024/01/27 13:38:35;;;;;;;18.30;6.43;;;10.20;81.50;;;;;;10426424;28;20558;-67
2024/01/27 13:43:38;;;;;;;10.73;4.65;;;10.00;81.80;;;;;;10418695;28;20742;-67
2024/01/27 13:48:45;;;;;;;14.65;5.43;;;9.80;82.70;;;;;;10409550;28;20534;-69
2024/01/27 13:53:51;;;;;;;16.50;4.60;;;9.70;80.00;;;;;;10425332;28;20219;-67
2024/01/27 13:58:54;;;;;;;17.00;6.63;;;9.60;81.30;;;;;;10420639;28;20248;-67
2024/01/27 14:03:58;;;;;;;15.17;5.40;;;9.50;80.80;;;;;;10407097;28;20499;-66
2024/01/27 14:09:03;;;;;;;14.10;4.20;;;9.60;78.70;;;;;;10419262;28;20292;-67
2024/01/27 14:14:07;;;;;;;11.00;3.80;;;9.50;79.70;;;;;;10409439;28;20617;-67
2024/01/27 14:19:11;;;;;;;11.27;3.90;;;9.40;81.10;;;;;;10415084;28;20253;-68
2024/01/27 14:24:16;;;;;;;13.80;4.20;;;9.30;80.60;;;;;;10409560;28;20714;-65
2024/01/27 14:29:19;;;;;;;15.45;4.80;;;9.20;80.30;;;;;;10424712;28;20435;-69
2024/01/27 14:34:23;;;;;;;12.17;3.80;;;9.40;78.00;;;;;;10415073;28;20219;-69
2024/01/27 14:39:32;;;;;;;20.20;3.67;;;9.30;80.10;;;;;;10414629;28;20204;-69
2024/01/27 14:44:36;;;;;;;10.03;3.43;;;9.30;80.60;;;;;;10423397;28;20220;-67
2024/01/27 14:49:39;;;;;;;10.80;4.00;;;9.30;81.60;;;;;;10415855;28;20220;-68
2024/01/27 14:54:44;;;;;;;11.17;3.53;;;9.20;83.00;;;;;;10410375;28;20220;-69
2024/01/27 14:59:48;;;;;;;10.03;3.60;;;9.20;82.40;;;;;;10411719;28;20651;-69
2024/01/27 15:04:52;;;;;;;12.33;4.50;;;9.20;83.10;;;;;;10421434;28;20767;-67
2024/01/27 15:09:57;;;;;;;11.10;4.10;;;9.10;82.90;;;;;;10427047;28;20228;-69
2024/01/27 15:15:00;;;;;;;12.17;4.17;;;9.10;82.70;;;;;;10411217;28;20646;-68
2024/01/27 15:20:05;;;;;;;12.40;3.70;;;9.10;82.70;;;;;;10412917;28;20749;-69
2024/01/27 15:25:10;;;;;;;9.93;4.20;;;9.10;83.10;;;;;;10417189;28;20568;-67
2024/01/27 15:30:14;;;;;;;9.90;4.30;;;9.10;83.00;;;;;;10408352;28;20278;-68
2024/01/27 15:35:18;;;;;;;14.37;4.00;;;9.10;83.90;;;;;;10395495;28;20614;-67
2024/01/27 15:40:25;;;;;;;14.18;4.30;;;9.00;83.30;;;;;;10405525;28;20620;-68
2024/01/27 15:45:29;;;;;;;16.27;5.13;;;9.00;83.30;;;;;;10401785;28;20571;-66
2024/01/27 15:50:33;;;;;;;11.90;4.50;;;8.90;83.30;;;;;;10406305;28;20224;-66
2024/01/27 15:55:38;;;;;;;8.90;4.20;;;8.80;83.70;;;;;;10412538;28;20691;-72
2024/01/27 16:00:42;;;;;;;13.13;4.67;;;8.70;84.30;;;;;;10407747;28;20200;-68
2024/01/27 16:05:46;;;;;;;17.37;5.07;;;8.70;83.60;;;;;;10406461;28;20217;-67
2024/01/27 16:10:52;;;;;;;16.20;4.93;;;8.60;83.60;;;;;;10409562;28;20266;-66
2024/01/27 16:15:57;;;;;;;11.97;4.97;;;8.50;84.00;;;;;;10409675;28;20238;-66
2024/01/27 16:21:01;;;;;;;15.80;5.85;;;8.40;84.20;;;;;;10409014;28;20889;-66
2024/01/27 16:26:06;;;;;;;17.50;6.63;;;8.40;83.70;;;;;;10409362;28;20485;-67
2024/01/27 16:31:10;;;;;;;14.95;7.22;;;8.40;83.30;;;;;;10407588;28;20476;-67
2024/01/27 16:36:13;;;;;;;12.97;5.97;;;8.40;83.20;;;;;;10408312;28;20224;-67
2024/01/27 16:41:18;;;;;;;15.53;6.50;;;8.30;84.00;;;;;;10410658;28;20189;-66
2024/01/27 16:46:24;;;;;;;13.07;6.53;;;8.00;84.20;;;;;;10411572;28;20221;-67
2024/01/27 16:51:28;;;;;;;17.63;6.10;;;7.90;84.50;;;;;;10400266;28;20213;-67
2024/01/27 16:56:34;;;;;;;19.20;7.70;;;7.80;84.70;;;;;;10415577;28;20583;-68
2024/01/27 17:01:38;;;;;;;20.07;8.67;;;7.70;84.70;;;;;;10410368;28;20247;-67
2024/01/27 17:06:41;;;;;;;16.67;6.70;;;7.60;84.70;;;;;;10421688;28;20251;-67
2024/01/27 17:11:46;;;;;;;17.67;7.40;;;7.50;84.70;;;;;;10408653;28;20449;-65
2024/01/27 17:16:50;;;;;;;20.27;7.60;;;7.50;84.70;;;;;;10412928;28;20200;-65
2024/01/27 17:21:53;;;;;;;16.70;6.10;;;7.50;84.70;;;;;;10408250;28;21618;-64
2024/01/27 17:27:00;;;;;;;17.50;7.53;;;7.40;84.70;;;;;;10404274;28;20495;-65
2024/01/27 17:32:04;;;;;;;17.00;6.33;;;7.40;85.00;;;;;;10406518;28;20220;-66
2024/01/27 17:37:08;;;;;;;13.97;6.53;;;7.30;85.10;;;;;;10384948;28;20203;-62
2024/01/27 17:42:13;;;;;;;14.03;6.43;;;7.20;84.90;;;;;;10400722;28;20715;-64
2024/01/27 17:47:17;;;;;;;19.30;8.50;;;7.10;85.10;;;;;;10402974;28;20437;-64
2024/01/27 17:52:20;;;;;;;16.93;9.00;;;7.30;85.40;;;;;;10409909;28;20228;-65
2024/01/27 17:57:26;;;;;;;18.58;10.90;;;7.20;85.10;;;;;;10405671;28;20443;-64
2024/01/27 18:02:29;;;;;;;20.77;9.77;;;7.20;85.80;;;;;;10402790;28;20221;-65
2024/01/27 18:07:33;;;;;;;15.93;9.57;;;7.10;84.90;;;;;;10388624;28;20545;-64
2024/01/27 18:12:38;;;;;;;16.50;8.90;;;7.00;85.00;;;;;;10406095;28;20227;-64
2024/01/27 18:17:45;;;;;;;17.40;9.30;;;6.90;85.30;;;;;;10409721;28;20741;-63
2024/01/27 18:22:49;;;;;;;18.97;9.47;;;6.70;85.30;;;;;;10400083;28;20277;-64
2024/01/27 18:27:54;;;;;;;20.00;9.60;;;6.70;85.40;;;;;;10405731;28;20196;-61
2024/01/27 18:32:58;;;;;;;19.67;9.67;;;6.60;85.50;;;;;;10400729;28;20277;-63
2024/01/27 18:38:07;;;;;;;18.63;8.50;;;6.60;85.30;;;;;;10402299;28;20208;-63
2024/01/27 18:43:12;;;;;;;21.67;9.70;;;6.60;85.50;;;;;;10400480;28;20243;-63
2024/01/27 18:48:16;;;;;;;16.37;9.93;;;6.50;85.50;;;;;;10401552;28;20790;-64
2024/01/27 18:53:20;;;;;;;20.15;10.55;;;6.50;85.50;;;;;;10403436;28;20434;-64
2024/01/27 18:58:25;;;;;;;20.37;11.03;;;6.50;85.70;;;;;;10400699;28;20196;-65
2024/01/27 19:03:28;;;;;;;20.53;11.10;;;6.40;85.60;;;;;;10401668;28;20220;-65
2024/01/27 19:08:32;;;;;;;23.77;12.80;;;6.40;85.70;;;;;;10402296;28;20264;-64
2024/01/27 19:13:37;;;;;;;38.07;23.43;;;6.30;85.70;;;;;;10404745;28;20660;-64
2024/01/27 19:18:41;;;;;;;26.10;14.83;;;6.20;85.70;;;;;;10405592;28;20203;-64
2024/01/27 19:23:44;;;;;;;38.10;19.40;;;6.10;85.90;;;;;;10402746;28;20227;-64
2024/01/27 19:28:50;;;;;;;30.87;18.40;;;6.10;85.90;;;;;;10404333;28;20678;-64
2024/01/27 19:33:54;;;;;;;131.37;92.57;;;6.00;86.00;;;;;;10407398;28;20211;-65
2024/01/27 19:38:57;;;;;;;138.37;97.60;;;6.00;85.90;;;;;;10401668;28;20202;-65
2024/01/27 19:44:02;;;;;;;35.90;24.03;;;5.90;85.90;;;;;;10410556;28;20200;-66
2024/01/27 19:49:06;;;;;;;28.57;14.33;;;5.90;86.20;;;;;;10415286;28;20257;-65
2024/01/27 19:54:10;;;;;;;23.67;12.77;;;5.90;86.20;;;;;;10403798;28;20281;-66
2024/01/27 19:59:15;;;;;;;37.47;19.53;;;5.80;86.80;;;;;;10408768;28;20200;-65
2024/01/27 20:04:19;;;;;;;26.33;16.00;;;5.80;86.10;;;;;;10391156;28;20887;-64
2024/01/27 20:09:26;;;;;;;29.47;16.77;;;5.80;86.10;;;;;;10409361;28;20273;-67
2024/01/27 20:14:32;;;;;;;117.70;77.63;;;5.70;86.00;;;;;;10410715;28;20277;-66
2024/01/27 20:19:35;;;;;;;148.47;100.23;;;5.60;85.90;;;;;;10412766;28;20673;-66
2024/01/27 20:24:39;;;;;;;131.13;84.30;;;5.50;85.80;;;;;;10409679;28;20225;-67
2024/01/27 20:29:44;;;;;;;137.03;92.50;;;5.40;86.20;;;;;;10403224;28;20722;-66
2024/01/27 20:34:48;;;;;;;109.50;73.27;;;5.40;86.00;;;;;;10407374;28;20232;-65
2024/01/27 20:39:53;;;;;;;89.87;58.60;;;5.30;86.10;;;;;;10406275;28;20198;-66
2024/01/27 20:44:59;;;;;;;73.13;45.93;;;5.30;86.10;;;;;;10407527;28;20278;-65
2024/01/27 20:50:03;;;;;;;47.07;31.93;;;5.20;86.00;;;;;;10396429;28;20219;-64
2024/01/27 20:55:09;;;;;;;57.37;37.43;;;5.10;85.80;;;;;;10407171;28;20620;-63
2024/01/27 21:00:14;;;;;;;44.37;27.20;;;5.10;86.40;;;;;;10407933;28;20198;-62
2024/01/27 21:05:18;;;;;;;32.80;22.03;;;5.00;86.10;;;;;;10401655;28;20227;-65
2024/01/27 21:10:22;;;;;;;42.97;26.10;;;5.00;86.00;;;;;;10406110;28;20708;-63
2024/01/27 21:15:27;;;;;;;62.93;42.87;;;4.90;85.90;;;;;;10403582;28;20278;-63
2024/01/27 21:20:31;;;;;;;71.40;49.23;;;5.00;86.40;;;;;;10407017;28;20882;-64
2024/01/27 21:25:34;;;;;;;78.60;49.30;;;4.90;86.30;;;;;;10401927;28;20235;-65
2024/01/27 21:30:39;;;;;;;100.37;68.93;;;4.90;86.20;;;;;;10406100;28;20662;-61
2024/01/27 21:35:44;;;;;;;71.50;47.93;;;4.90;86.50;;;;;;10379908;28;20294;-63
2024/01/27 21:40:48;;;;;;;65.57;45.53;;;4.80;87.10;;;;;;10395719;28;20240;-64
2024/01/27 21:45:53;;;;;;;49.47;34.93;;;4.70;86.20;;;;;;10418081;28;20631;-63
2024/01/27 21:50:57;;;;;;;48.47;29.27;;;4.70;86.20;;;;;;10398038;28;20256;-62
2024/01/27 21:56:01;;;;;;;22.07;11.53;;;4.70;86.60;;;;;;10396795;28;20255;-61
2024/01/27 22:01:06;;;;;;;32.80;20.20;;;4.70;86.80;;;;;;10410365;28;20198;-61
2024/01/27 22:06:10;;;;;;;22.37;15.87;;;4.60;86.50;;;;;;10402779;28;20222;-62
2024/01/27 22:11:14;;;;;;;19.57;10.40;;;4.60;86.70;;;;;;10407032;28;20246;-62
2024/01/27 22:16:19;;;;;;;17.10;9.10;;;4.60;87.00;;;;;;10403354;28;20221;-64
2024/01/27 22:21:22;;;;;;;16.60;9.90;;;4.70;86.90;;;;;;10413003;28;20253;-63
2024/01/27 22:26:26;;;;;;;20.83;9.77;;;4.60;86.60;;;;;;10402097;28;20231;-62
2024/01/27 22:31:32;;;;;;;14.87;8.67;;;4.60;86.40;;;;;;10410648;28;20226;-63
2024/01/27 22:36:36;;;;;;;14.57;8.00;;;4.60;86.80;;;;;;10408129;28;20293;-64
2024/01/27 22:41:40;;;;;;;15.63;7.77;;;4.60;86.80;;;;;;10418717;28;20216;-64
2024/01/27 22:46:45;;;;;;;13.93;7.13;;;4.60;86.60;;;;;;10412047;28;20776;-63
2024/01/27 22:51:51;;;;;;;16.00;7.17;;;4.60;86.60;;;;;;10414918;28;20344;-63
2024/01/27 22:56:54;;;;;;;12.90;6.67;;;4.60;86.60;;;;;;10406702;28;20196;-63
2024/01/27 23:01:59;;;;;;;15.17;5.90;;;4.60;87.00;;;;;;10405879;28;20322;-63
2024/01/27 23:07:03;;;;;;;12.20;5.70;;;4.60;87.00;;;;;;10421199;28;20265;-61
2024/01/27 23:12:09;;;;;;;12.03;5.27;;;4.60;86.90;;;;;;10423251;28;20250;-63
2024/01/27 23:17:15;;;;;;;9.43;4.90;;;4.70;86.90;;;;;;10420063;28;20819;-62
2024/01/27 23:22:18;;;;;;;14.80;5.00;;;4.70;87.00;;;;;;10435799;28;20720;-63
2024/01/27 23:27:22;;;;;;;14.87;5.13;;;4.80;87.90;;;;;;10423791;28;20284;-63
2024/01/27 23:32:27;;;;;;;10.03;4.57;;;4.90;87.60;;;;;;10422903;28;20688;-62
2024/01/27 23:37:30;;;;;;;11.23;4.17;;;4.90;86.60;;;;;;10426195;28;20193;-63
2024/01/27 23:42:35;;;;;;;12.90;4.73;;;4.80;86.50;;;;;;10427163;28;20751;-63
2024/01/27 23:47:41;;;;;;;11.00;4.37;;;4.80;86.60;;;;;;10426909;28;20255;-63
2024/01/27 23:52:48;;;;;;;12.70;4.30;;;4.80;86.50;;;;;;10428226;28;20221;-63
2024/01/27 23:57:52;;;;;;;13.13;5.27;;;4.80;86.70;;;;;;10420494;28;20207;-63
